Bal Harbour, FL (33154)

1:00 PM EDT on September 02, 2015 (GMT -0400)
North Miami Beach FIU | | Change Station
CLOSE
Current Station
Personal Weather Station
Location: North Miami Beach, FL
Elevation: 39 ft
Nearby Weather Stations

Elev 39 ft 25.91 °N, 80.14 °W | Updated 12 seconds ago

Mostly Cloudy
Mostly Cloudy
86.5 °F
Feels Like 100 °F
N
10.1
Wind Variable Wind from SE
Gusts 11.0 mph

Today
High -- | Low -- °F
--% Chance of Precip.
Yesterday
High -- | Low -- °F
Precip. -- in
7:01 AM 7:39 PM
Waning Gibbous, 79% visible
Pressure 30.07 in
Visibility 10.0 miles
Clouds Mostly Cloudy 3400 ft
Overcast 4500 ft
Heat Index 100 °F
Dew Point 78 °F
Humidity 77%
Rainfall 0.00 in
Snow Depth Not available.
UV 4 out of 12
Pollen 4.00 out of 12
Air Quality Not available.
Flu Activity Not available.
METAR KOPF 021653Z 28010KT 10SM BKN034 OVC045 31/24 A3007 RMK AO2 LTG DSNT SW SLP183 T03060239
Pressure 30.07 in
Visibility 10.0 miles
Clouds Mostly Cloudy 3400 ft
Overcast 4500 ft
Heat Index 100 °F
Dew Point 78 °F
Humidity 77%
Rainfall 0.00 in
Snow Depth Not available.
UV 4 out of 12
Pollen 4.00 out of 12
Air Quality Not available.
Flu Activity Not available.
METAR KOPF 021653Z 28010KT 10SM BKN034 OVC045 31/24 A3007 RMK AO2 LTG DSNT SW SLP183 T03060239

10-Day Weather Forecast

×

Almanac

Astronomy

Sep. 02, 2015 Rise Set
Actual Time
Civil Twilight
Nautical Twilight
Astronomical Twilight
Moon
Length of Visible Light
Length of Day
Tomorrow will be .
, % of the Moon is Illuminated

Today's Extremes

State Highs State Lows

Community

WunderPhotos

Upload Photos

1,851,785 photos uploaded!

WunderBlogs® & News

Nearby

Air Quality

  Air Quality AQ Index Pollutant
Not available.

Snow Depth

Station Depth Elevation

Earthquake Activity

City Distance Mag. Time & Date
Minimum magnitude displayed is 2.5.

Coastal Water Temperatures

Place Temperature

Stations

Nearby Weather Stations

Station Location Temp. Windchill Dew Point Humidity Wind Precip. Elev Updated Type